sensor_id;sensor_type;location;lat;lon;timestamp;P1;durP1;ratioP1;P2;durP2;ratioP2
2035;SDS011;23642;42.658;23.350;2022-10-16T00:00:41;80.23;;;74.27;;
2035;SDS011;23642;42.658;23.350;2022-10-16T00:03:09;79.07;;;72.80;;
2035;SDS011;23642;42.658;23.350;2022-10-16T00:05:39;79.80;;;74.00;;
2035;SDS011;23642;42.658;23.350;2022-10-16T00:08:07;79.93;;;74.13;;
2035;SDS011;23642;42.658;23.350;2022-10-16T00:10:34;78.40;;;72.00;;
2035;SDS011;23642;42.658;23.350;2022-10-16T00:13:02;78.50;;;72.80;;
2035;SDS011;23642;42.658;23.350;2022-10-16T00:15:30;78.73;;;72.73;;
2035;SDS011;23642;42.658;23.350;2022-10-16T00:17:58;78.17;;;72.30;;
2035;SDS011;23642;42.658;23.350;2022-10-16T00:20:25;78.13;;;72.03;;
2035;SDS011;23642;42.658;23.350;2022-10-16T00:22:52;75.83;;;70.23;;
2035;SDS011;23642;42.658;23.350;2022-10-16T00:25:19;74.87;;;69.17;;
2035;SDS011;23642;42.658;23.350;2022-10-16T00:27:46;80.03;;;74.10;;
2035;SDS011;23642;42.658;23.350;2022-10-16T00:30:15;77.53;;;71.70;;
2035;SDS011;23642;42.658;23.350;2022-10-16T00:32:44;75.30;;;69.53;;
2035;SDS011;23642;42.658;23.350;2022-10-16T00:35:10;77.57;;;71.47;;
2035;SDS011;23642;42.658;23.350;2022-10-16T00:37:37;76.77;;;71.00;;
2035;SDS011;23642;42.658;23.350;2022-10-16T00:40:04;75.00;;;69.13;;
2035;SDS011;23642;42.658;23.350;2022-10-16T00:42:32;75.97;;;70.27;;
2035;SDS011;23642;42.658;23.350;2022-10-16T00:44:58;78.00;;;72.30;;
2035;SDS011;23642;42.658;23.350;2022-10-16T00:47:26;75.70;;;70.10;;
2035;SDS011;23642;42.658;23.350;2022-10-16T00:49:59;76.10;;;70.07;;
2035;SDS011;23642;42.658;23.350;2022-10-16T00:52:31;75.80;;;69.90;;
2035;SDS011;23642;42.658;23.350;2022-10-16T00:54:57;77.20;;;71.30;;
2035;SDS011;23642;42.658;23.350;2022-10-16T00:57:25;76.97;;;71.17;;
2035;SDS011;23642;42.658;23.350;2022-10-16T00:59:52;77.00;;;70.80;;
2035;SDS011;23642;42.658;23.350;2022-10-16T01:02:19;75.90;;;69.70;;
2035;SDS011;23642;42.658;23.350;2022-10-16T01:04:47;76.67;;;70.67;;
2035;SDS011;23642;42.658;23.350;2022-10-16T01:07:21;76.13;;;70.23;;
2035;SDS011;23642;42.658;23.350;2022-10-16T01:10:02;76.40;;;70.70;;
2035;SDS011;23642;42.658;23.350;2022-10-16T01:12:39;74.50;;;68.90;;
2035;SDS011;23642;42.658;23.350;2022-10-16T01:15:10;74.37;;;68.00;;
2035;SDS011;23642;42.658;23.350;2022-10-16T01:17:43;74.77;;;69.20;;
2035;SDS011;23642;42.658;23.350;2022-10-16T01:20:15;74.97;;;69.27;;
2035;SDS011;23642;42.658;23.350;2022-10-16T01:22:56;72.73;;;67.23;;
2035;SDS011;23642;42.658;23.350;2022-10-16T01:25:33;72.27;;;66.97;;
2035;SDS011;23642;42.658;23.350;2022-10-16T01:28:14;71.57;;;66.23;;
2035;SDS011;23642;42.658;23.350;2022-10-16T01:30:43;68.97;;;63.97;;
2035;SDS011;23642;42.658;23.350;2022-10-16T01:33:13;71.00;;;65.40;;
2035;SDS011;23642;42.658;23.350;2022-10-16T01:35:46;70.67;;;65.40;;
2035;SDS011;23642;42.658;23.350;2022-10-16T01:38:19;73.47;;;67.97;;
2035;SDS011;23642;42.658;23.350;2022-10-16T01:40:51;70.87;;;65.60;;
2035;SDS011;23642;42.658;23.350;2022-10-16T01:43:24;74.47;;;68.87;;
2035;SDS011;23642;42.658;23.350;2022-10-16T01:45:53;71.17;;;65.57;;
2035;SDS011;23642;42.658;23.350;2022-10-16T01:48:21;73.23;;;67.67;;
2035;SDS011;23642;42.658;23.350;2022-10-16T01:50:50;72.90;;;66.60;;
2035;SDS011;23642;42.658;23.350;2022-10-16T01:53:21;70.30;;;64.83;;
2035;SDS011;23642;42.658;23.350;2022-10-16T01:55:50;71.30;;;66.20;;
2035;SDS011;23642;42.658;23.350;2022-10-16T01:58:20;70.43;;;65.53;;
2035;SDS011;23642;42.658;23.350;2022-10-16T02:00:51;69.67;;;64.17;;
2035;SDS011;23642;42.658;23.350;2022-10-16T02:03:20;71.07;;;65.83;;
2035;SDS011;23642;42.658;23.350;2022-10-16T02:05:49;69.87;;;64.77;;
2035;SDS011;23642;42.658;23.350;2022-10-16T02:08:19;69.23;;;64.07;;
2035;SDS011;23642;42.658;23.350;2022-10-16T02:10:48;68.23;;;63.13;;
2035;SDS011;23642;42.658;23.350;2022-10-16T02:13:16;69.27;;;64.17;;
2035;SDS011;23642;42.658;23.350;2022-10-16T02:15:49;71.10;;;65.97;;
2035;SDS011;23642;42.658;23.350;2022-10-16T02:18:15;70.27;;;65.20;;
2035;SDS011;23642;42.658;23.350;2022-10-16T02:20:43;68.77;;;63.67;;
2035;SDS011;23642;42.658;23.350;2022-10-16T02:23:19;70.83;;;65.53;;
2035;SDS011;23642;42.658;23.350;2022-10-16T02:25:52;69.93;;;64.93;;
2035;SDS011;23642;42.658;23.350;2022-10-16T02:28:22;71.33;;;66.13;;
2035;SDS011;23642;42.658;23.350;2022-10-16T02:30:56;69.47;;;64.57;;
2035;SDS011;23642;42.658;23.350;2022-10-16T02:33:26;69.97;;;64.40;;
2035;SDS011;23642;42.658;23.350;2022-10-16T02:35:55;68.33;;;63.43;;
2035;SDS011;23642;42.658;23.350;2022-10-16T02:38:23;69.07;;;64.07;;
2035;SDS011;23642;42.658;23.350;2022-10-16T02:40:51;68.53;;;63.40;;
2035;SDS011;23642;42.658;23.350;2022-10-16T02:43:21;68.10;;;62.90;;
2035;SDS011;23642;42.658;23.350;2022-10-16T02:45:50;70.47;;;65.27;;
2035;SDS011;23642;42.658;23.350;2022-10-16T02:48:18;69.77;;;64.57;;
2035;SDS011;23642;42.658;23.350;2022-10-16T02:50:45;71.97;;;66.57;;
2035;SDS011;23642;42.658;23.350;2022-10-16T02:53:12;69.70;;;64.50;;
2035;SDS011;23642;42.658;23.350;2022-10-16T02:55:38;73.57;;;68.13;;
2035;SDS011;23642;42.658;23.350;2022-10-16T02:58:08;69.43;;;64.43;;
2035;SDS011;23642;42.658;23.350;2022-10-16T03:00:35;71.17;;;66.07;;
2035;SDS011;23642;42.658;23.350;2022-10-16T03:03:04;71.57;;;65.67;;
2035;SDS011;23642;42.658;23.350;2022-10-16T03:05:32;72.90;;;66.80;;
2035;SDS011;23642;42.658;23.350;2022-10-16T03:07:58;71.70;;;65.97;;
2035;SDS011;23642;42.658;23.350;2022-10-16T03:10:25;71.80;;;66.10;;
2035;SDS011;23642;42.658;23.350;2022-10-16T03:12:52;70.70;;;65.40;;
2035;SDS011;23642;42.658;23.350;2022-10-16T03:15:19;68.40;;;63.40;;
2035;SDS011;23642;42.658;23.350;2022-10-16T03:17:46;70.60;;;65.17;;
2035;SDS011;23642;42.658;23.350;2022-10-16T03:20:13;68.67;;;63.47;;
2035;SDS011;23642;42.658;23.350;2022-10-16T03:22:41;69.50;;;64.20;;
2035;SDS011;23642;42.658;23.350;2022-10-16T03:25:08;67.20;;;62.23;;
2035;SDS011;23642;42.658;23.350;2022-10-16T03:27:35;68.90;;;63.60;;
2035;SDS011;23642;42.658;23.350;2022-10-16T03:30:02;70.20;;;64.90;;
2035;SDS011;23642;42.658;23.350;2022-10-16T03:32:29;69.97;;;64.87;;
2035;SDS011;23642;42.658;23.350;2022-10-16T03:34:56;69.10;;;63.90;;
2035;SDS011;23642;42.658;23.350;2022-10-16T03:37:22;74.13;;;67.93;;
2035;SDS011;23642;42.658;23.350;2022-10-16T03:39:51;70.73;;;65.47;;
2035;SDS011;23642;42.658;23.350;2022-10-16T03:42:18;72.97;;;67.47;;
2035;SDS011;23642;42.658;23.350;2022-10-16T03:44:45;71.23;;;65.77;;
2035;SDS011;23642;42.658;23.350;2022-10-16T03:47:11;68.90;;;63.60;;
2035;SDS011;23642;42.658;23.350;2022-10-16T03:49:40;71.47;;;66.10;;
2035;SDS011;23642;42.658;23.350;2022-10-16T03:52:07;72.50;;;67.10;;
2035;SDS011;23642;42.658;23.350;2022-10-16T03:54:34;71.33;;;66.00;;
2035;SDS011;23642;42.658;23.350;2022-10-16T03:57:02;74.40;;;68.70;;
2035;SDS011;23642;42.658;23.350;2022-10-16T03:59:29;73.10;;;67.43;;
2035;SDS011;23642;42.658;23.350;2022-10-16T04:01:55;72.60;;;67.07;;
2035;SDS011;23642;42.658;23.350;2022-10-16T04:04:22;74.13;;;68.53;;
2035;SDS011;23642;42.658;23.350;2022-10-16T04:06:50;73.30;;;67.60;;
2035;SDS011;23642;42.658;23.350;2022-10-16T04:09:16;73.37;;;67.77;;
2035;SDS011;23642;42.658;23.350;2022-10-16T04:11:43;73.67;;;68.23;;
2035;SDS011;23642;42.658;23.350;2022-10-16T04:14:11;71.63;;;66.23;;
2035;SDS011;23642;42.658;23.350;2022-10-16T04:16:38;73.90;;;68.30;;
2035;SDS011;23642;42.658;23.350;2022-10-16T04:19:05;75.57;;;68.63;;
2035;SDS011;23642;42.658;23.350;2022-10-16T04:21:31;73.97;;;68.43;;
2035;SDS011;23642;42.658;23.350;2022-10-16T04:23:58;71.03;;;65.77;;
2035;SDS011;23642;42.658;23.350;2022-10-16T04:26:25;72.10;;;66.40;;
2035;SDS011;23642;42.658;23.350;2022-10-16T04:28:52;69.03;;;63.67;;
2035;SDS011;23642;42.658;23.350;2022-10-16T04:31:20;70.63;;;65.23;;
2035;SDS011;23642;42.658;23.350;2022-10-16T04:33:47;72.30;;;66.43;;
2035;SDS011;23642;42.658;23.350;2022-10-16T04:36:14;68.10;;;63.00;;
2035;SDS011;23642;42.658;23.350;2022-10-16T04:38:41;71.07;;;65.63;;
2035;SDS011;23642;42.658;23.350;2022-10-16T04:41:07;73.07;;;67.40;;
2035;SDS011;23642;42.658;23.350;2022-10-16T04:43:34;73.40;;;68.00;;
2035;SDS011;23642;42.658;23.350;2022-10-16T04:46:03;72.20;;;66.70;;
2035;SDS011;23642;42.658;23.350;2022-10-16T04:48:31;72.93;;;67.07;;
2035;SDS011;23642;42.658;23.350;2022-10-16T04:51:00;71.27;;;65.53;;
2035;SDS011;23642;42.658;23.350;2022-10-16T04:53:27;70.83;;;65.33;;
2035;SDS011;23642;42.658;23.350;2022-10-16T04:55:54;73.43;;;67.73;;
2035;SDS011;23642;42.658;23.350;2022-10-16T04:58:22;73.83;;;67.03;;
2035;SDS011;23642;42.658;23.350;2022-10-16T05:00:49;73.97;;;68.17;;
2035;SDS011;23642;42.658;23.350;2022-10-16T05:03:15;74.43;;;68.70;;
2035;SDS011;23642;42.658;23.350;2022-10-16T05:05:44;75.70;;;69.50;;
2035;SDS011;23642;42.658;23.350;2022-10-16T05:08:11;74.20;;;68.20;;
2035;SDS011;23642;42.658;23.350;2022-10-16T05:10:38;71.30;;;65.60;;
2035;SDS011;23642;42.658;23.350;2022-10-16T05:13:07;77.20;;;70.87;;
2035;SDS011;23642;42.658;23.350;2022-10-16T05:15:34;76.13;;;69.87;;
2035;SDS011;23642;42.658;23.350;2022-10-16T05:18:01;76.93;;;70.90;;
2035;SDS011;23642;42.658;23.350;2022-10-16T05:20:28;76.50;;;70.50;;
2035;SDS011;23642;42.658;23.350;2022-10-16T05:22:56;73.63;;;67.70;;
2035;SDS011;23642;42.658;23.350;2022-10-16T05:25:23;75.90;;;69.77;;
2035;SDS011;23642;42.658;23.350;2022-10-16T05:27:50;73.17;;;67.40;;
2035;SDS011;23642;42.658;23.350;2022-10-16T05:30:17;76.10;;;69.97;;
2035;SDS011;23642;42.658;23.350;2022-10-16T05:32:46;74.63;;;68.93;;
2035;SDS011;23642;42.658;23.350;2022-10-16T05:35:14;72.57;;;66.87;;
2035;SDS011;23642;42.658;23.350;2022-10-16T05:37:41;77.30;;;71.00;;
2035;SDS011;23642;42.658;23.350;2022-10-16T05:40:10;77.77;;;71.67;;
2035;SDS011;23642;42.658;23.350;2022-10-16T05:42:38;74.50;;;68.80;;
2035;SDS011;23642;42.658;23.350;2022-10-16T05:45:05;73.27;;;67.87;;
2035;SDS011;23642;42.658;23.350;2022-10-16T05:47:33;75.90;;;69.70;;
2035;SDS011;23642;42.658;23.350;2022-10-16T05:50:00;74.90;;;69.20;;
2035;SDS011;23642;42.658;23.350;2022-10-16T05:52:27;75.73;;;70.00;;
2035;SDS011;23642;42.658;23.350;2022-10-16T05:54:53;74.07;;;68.60;;
2035;SDS011;23642;42.658;23.350;2022-10-16T05:57:21;72.87;;;67.27;;
2035;SDS011;23642;42.658;23.350;2022-10-16T05:59:48;73.43;;;67.93;;
2035;SDS011;23642;42.658;23.350;2022-10-16T06:02:15;75.67;;;70.13;;
2035;SDS011;23642;42.658;23.350;2022-10-16T06:04:42;75.77;;;69.70;;
2035;SDS011;23642;42.658;23.350;2022-10-16T06:07:08;71.23;;;66.13;;
2035;SDS011;23642;42.658;23.350;2022-10-16T06:09:35;73.33;;;68.00;;
2035;SDS011;23642;42.658;23.350;2022-10-16T06:12:02;77.30;;;71.60;;
2035;SDS011;23642;42.658;23.350;2022-10-16T06:14:31;76.40;;;71.20;;
2035;SDS011;23642;42.658;23.350;2022-10-16T06:16:57;76.83;;;71.43;;
2035;SDS011;23642;42.658;23.350;2022-10-16T06:19:24;77.40;;;71.90;;
2035;SDS011;23642;42.658;23.350;2022-10-16T06:21:51;77.97;;;72.27;;
2035;SDS011;23642;42.658;23.350;2022-10-16T06:24:17;78.43;;;72.90;;
2035;SDS011;23642;42.658;23.350;2022-10-16T06:26:44;78.57;;;72.43;;
2035;SDS011;23642;42.658;23.350;2022-10-16T06:29:11;80.87;;;74.80;;
2035;SDS011;23642;42.658;23.350;2022-10-16T06:31:42;79.53;;;73.93;;
2035;SDS011;23642;42.658;23.350;2022-10-16T06:34:09;78.87;;;73.47;;
2035;SDS011;23642;42.658;23.350;2022-10-16T06:36:36;79.57;;;74.07;;
2035;SDS011;23642;42.658;23.350;2022-10-16T06:39:03;82.13;;;76.23;;
2035;SDS011;23642;42.658;23.350;2022-10-16T06:41:32;80.80;;;74.97;;
2035;SDS011;23642;42.658;23.350;2022-10-16T06:43:59;86.13;;;80.23;;
2035;SDS011;23642;42.658;23.350;2022-10-16T06:46:26;82.80;;;76.90;;
2035;SDS011;23642;42.658;23.350;2022-10-16T06:48:55;83.80;;;77.93;;
2035;SDS011;23642;42.658;23.350;2022-10-16T06:51:22;84.60;;;78.67;;
2035;SDS011;23642;42.658;23.350;2022-10-16T06:53:50;86.80;;;80.90;;
2035;SDS011;23642;42.658;23.350;2022-10-16T06:56:19;84.27;;;78.47;;
2035;SDS011;23642;42.658;23.350;2022-10-16T06:58:47;87.40;;;81.20;;
2035;SDS011;23642;42.658;23.350;2022-10-16T07:01:15;86.93;;;80.93;;
2035;SDS011;23642;42.658;23.350;2022-10-16T07:03:44;86.47;;;80.47;;
2035;SDS011;23642;42.658;23.350;2022-10-16T07:06:14;87.00;;;81.03;;
2035;SDS011;23642;42.658;23.350;2022-10-16T07:08:43;86.57;;;80.53;;
2035;SDS011;23642;42.658;23.350;2022-10-16T07:11:12;87.73;;;81.60;;
2035;SDS011;23642;42.658;23.350;2022-10-16T07:13:40;87.40;;;81.30;;
2035;SDS011;23642;42.658;23.350;2022-10-16T07:16:09;89.50;;;83.20;;
2035;SDS011;23642;42.658;23.350;2022-10-16T07:18:37;88.70;;;82.70;;
2035;SDS011;23642;42.658;23.350;2022-10-16T07:21:05;87.90;;;81.70;;
2035;SDS011;23642;42.658;23.350;2022-10-16T07:23:34;92.80;;;86.20;;
2035;SDS011;23642;42.658;23.350;2022-10-16T07:26:02;94.07;;;87.50;;
2035;SDS011;23642;42.658;23.350;2022-10-16T07:28:30;95.90;;;89.10;;
2035;SDS011;23642;42.658;23.350;2022-10-16T07:30:59;93.47;;;86.90;;
2035;SDS011;23642;42.658;23.350;2022-10-16T07:33:27;93.83;;;86.83;;
2035;SDS011;23642;42.658;23.350;2022-10-16T07:35:54;94.50;;;87.80;;
2035;SDS011;23642;42.658;23.350;2022-10-16T07:38:21;95.07;;;88.33;;
2035;SDS011;23642;42.658;23.350;2022-10-16T07:40:55;95.43;;;88.40;;
2035;SDS011;23642;42.658;23.350;2022-10-16T07:43:23;94.60;;;87.80;;
2035;SDS011;23642;42.658;23.350;2022-10-16T07:45:50;94.60;;;87.73;;
2035;SDS011;23642;42.658;23.350;2022-10-16T07:48:17;93.70;;;87.00;;
2035;SDS011;23642;42.658;23.350;2022-10-16T07:50:44;93.33;;;87.00;;
2035;SDS011;23642;42.658;23.350;2022-10-16T07:53:11;95.10;;;88.50;;
2035;SDS011;23642;42.658;23.350;2022-10-16T07:55:38;93.90;;;87.40;;
2035;SDS011;23642;42.658;23.350;2022-10-16T07:58:06;94.47;;;87.90;;
2035;SDS011;23642;42.658;23.350;2022-10-16T08:00:35;93.83;;;87.20;;
2035;SDS011;23642;42.658;23.350;2022-10-16T08:03:03;95.60;;;88.80;;
2035;SDS011;23642;42.658;23.350;2022-10-16T08:05:30;95.70;;;89.13;;
2035;SDS011;23642;42.658;23.350;2022-10-16T08:07:59;97.77;;;90.40;;
2035;SDS011;23642;42.658;23.350;2022-10-16T08:10:26;99.27;;;92.37;;
2035;SDS011;23642;42.658;23.350;2022-10-16T08:12:54;97.00;;;90.20;;
2035;SDS011;23642;42.658;23.350;2022-10-16T08:15:22;95.10;;;88.50;;
2035;SDS011;23642;42.658;23.350;2022-10-16T08:17:55;100.10;;;92.73;;
2035;SDS011;23642;42.658;23.350;2022-10-16T08:20:24;97.53;;;90.70;;
2035;SDS011;23642;42.658;23.350;2022-10-16T08:22:51;96.40;;;89.90;;
2035;SDS011;23642;42.658;23.350;2022-10-16T08:25:18;94.83;;;88.53;;
2035;SDS011;23642;42.658;23.350;2022-10-16T08:27:45;95.40;;;89.00;;
2035;SDS011;23642;42.658;23.350;2022-10-16T08:30:11;95.67;;;89.27;;
2035;SDS011;23642;42.658;23.350;2022-10-16T08:32:40;95.20;;;88.33;;
2035;SDS011;23642;42.658;23.350;2022-10-16T08:35:08;98.03;;;91.40;;
2035;SDS011;23642;42.658;23.350;2022-10-16T08:37:35;96.40;;;89.70;;
2035;SDS011;23642;42.658;23.350;2022-10-16T08:40:02;97.10;;;90.23;;
2035;SDS011;23642;42.658;23.350;2022-10-16T08:42:37;96.80;;;90.10;;
2035;SDS011;23642;42.658;23.350;2022-10-16T08:45:16;97.93;;;90.83;;
2035;SDS011;23642;42.658;23.350;2022-10-16T08:47:56;94.57;;;88.07;;
2035;SDS011;23642;42.658;23.350;2022-10-16T08:50:32;97.70;;;91.10;;
2035;SDS011;23642;42.658;23.350;2022-10-16T08:53:03;95.93;;;89.10;;
2035;SDS011;23642;42.658;23.350;2022-10-16T08:55:32;95.10;;;87.87;;
2035;SDS011;23642;42.658;23.350;2022-10-16T08:58:08;95.90;;;89.30;;
2035;SDS011;23642;42.658;23.350;2022-10-16T09:00:38;98.60;;;91.70;;
2035;SDS011;23642;42.658;23.350;2022-10-16T09:03:10;97.93;;;91.40;;
2035;SDS011;23642;42.658;23.350;2022-10-16T09:05:49;94.23;;;88.03;;
2035;SDS011;23642;42.658;23.350;2022-10-16T09:08:26;94.47;;;88.17;;
2035;SDS011;23642;42.658;23.350;2022-10-16T09:10:59;95.07;;;88.87;;
2035;SDS011;23642;42.658;23.350;2022-10-16T09:13:35;96.50;;;90.13;;
2035;SDS011;23642;42.658;23.350;2022-10-16T09:16:15;94.83;;;88.63;;
2035;SDS011;23642;42.658;23.350;2022-10-16T09:18:52;96.60;;;89.83;;
2035;SDS011;23642;42.658;23.350;2022-10-16T09:21:25;96.80;;;90.40;;
2035;SDS011;23642;42.658;23.350;2022-10-16T09:23:56;96.40;;;90.20;;
2035;SDS011;23642;42.658;23.350;2022-10-16T09:26:24;96.27;;;90.17;;
2035;SDS011;23642;42.658;23.350;2022-10-16T09:28:51;96.60;;;90.50;;
2035;SDS011;23642;42.658;23.350;2022-10-16T09:31:19;97.00;;;90.77;;
2035;SDS011;23642;42.658;23.350;2022-10-16T09:33:49;95.37;;;89.13;;
2035;SDS011;23642;42.658;23.350;2022-10-16T09:36:20;94.17;;;88.07;;
2035;SDS011;23642;42.658;23.350;2022-10-16T09:39:00;94.97;;;88.77;;
2035;SDS011;23642;42.658;23.350;2022-10-16T09:41:33;95.70;;;89.60;;
2035;SDS011;23642;42.658;23.350;2022-10-16T09:44:02;94.23;;;88.23;;
2035;SDS011;23642;42.658;23.350;2022-10-16T09:46:42;94.70;;;88.60;;
2035;SDS011;23642;42.658;23.350;2022-10-16T09:49:20;91.83;;;85.97;;
2035;SDS011;23642;42.658;23.350;2022-10-16T09:51:48;95.97;;;89.47;;
2035;SDS011;23642;42.658;23.350;2022-10-16T09:54:16;94.03;;;87.83;;
2035;SDS011;23642;42.658;23.350;2022-10-16T09:56:44;91.40;;;85.67;;
2035;SDS011;23642;42.658;23.350;2022-10-16T09:59:14;93.30;;;87.43;;
2035;SDS011;23642;42.658;23.350;2022-10-16T10:01:44;92.07;;;86.27;;
2035;SDS011;23642;42.658;23.350;2022-10-16T10:04:16;92.10;;;86.20;;
2035;SDS011;23642;42.658;23.350;2022-10-16T10:06:45;93.80;;;87.80;;
2035;SDS011;23642;42.658;23.350;2022-10-16T10:09:17;93.27;;;87.27;;
2035;SDS011;23642;42.658;23.350;2022-10-16T10:11:48;91.90;;;86.03;;
2035;SDS011;23642;42.658;23.350;2022-10-16T10:14:18;94.90;;;88.70;;
2035;SDS011;23642;42.658;23.350;2022-10-16T10:16:51;93.80;;;87.80;;
2035;SDS011;23642;42.658;23.350;2022-10-16T10:19:19;94.23;;;88.17;;
2035;SDS011;23642;42.658;23.350;2022-10-16T10:21:49;93.67;;;87.67;;
2035;SDS011;23642;42.658;23.350;2022-10-16T10:24:17;93.97;;;87.87;;
2035;SDS011;23642;42.658;23.350;2022-10-16T10:26:54;95.57;;;89.40;;
2035;SDS011;23642;42.658;23.350;2022-10-16T10:29:29;95.37;;;89.13;;
2035;SDS011;23642;42.658;23.350;2022-10-16T10:32:08;94.40;;;88.30;;
2035;SDS011;23642;42.658;23.350;2022-10-16T10:34:53;93.50;;;87.60;;
2035;SDS011;23642;42.658;23.350;2022-10-16T10:37:37;93.57;;;87.23;;
2035;SDS011;23642;42.658;23.350;2022-10-16T10:40:15;93.43;;;87.30;;
2035;SDS011;23642;42.658;23.350;2022-10-16T10:42:51;93.97;;;87.43;;
2035;SDS011;23642;42.658;23.350;2022-10-16T10:45:25;92.03;;;86.20;;
2035;SDS011;23642;42.658;23.350;2022-10-16T10:47:59;91.20;;;85.60;;
2035;SDS011;23642;42.658;23.350;2022-10-16T10:50:39;90.67;;;84.77;;
2035;SDS011;23642;42.658;23.350;2022-10-16T10:53:15;90.93;;;85.03;;
2035;SDS011;23642;42.658;23.350;2022-10-16T10:55:51;92.47;;;86.20;;
2035;SDS011;23642;42.658;23.350;2022-10-16T10:58:43;90.70;;;85.00;;
2035;SDS011;23642;42.658;23.350;2022-10-16T11:01:30;91.30;;;85.60;;
2035;SDS011;23642;42.658;23.350;2022-10-16T11:04:11;91.67;;;85.90;;
2035;SDS011;23642;42.658;23.350;2022-10-16T11:06:57;91.70;;;85.97;;
2035;SDS011;23642;42.658;23.350;2022-10-16T11:09:30;90.90;;;85.20;;
2035;SDS011;23642;42.658;23.350;2022-10-16T11:12:01;92.20;;;86.30;;
2035;SDS011;23642;42.658;23.350;2022-10-16T11:14:34;91.10;;;85.30;;
2035;SDS011;23642;42.658;23.350;2022-10-16T11:17:08;88.77;;;83.27;;
2035;SDS011;23642;42.658;23.350;2022-10-16T11:19:39;91.00;;;85.40;;
2035;SDS011;23642;42.658;23.350;2022-10-16T11:22:11;91.07;;;85.47;;
2035;SDS011;23642;42.658;23.350;2022-10-16T11:24:45;90.60;;;84.90;;
2035;SDS011;23642;42.658;23.350;2022-10-16T11:27:16;92.17;;;86.47;;
2035;SDS011;23642;42.658;23.350;2022-10-16T11:29:48;89.17;;;83.57;;
2035;SDS011;23642;42.658;23.350;2022-10-16T11:32:27;90.27;;;84.47;;
2035;SDS011;23642;42.658;23.350;2022-10-16T11:34:59;91.90;;;86.00;;
2035;SDS011;23642;42.658;23.350;2022-10-16T11:37:37;91.10;;;85.10;;
2035;SDS011;23642;42.658;23.350;2022-10-16T11:40:16;90.83;;;85.27;;
2035;SDS011;23642;42.658;23.350;2022-10-16T11:42:48;89.70;;;84.00;;
2035;SDS011;23642;42.658;23.350;2022-10-16T11:45:23;88.33;;;82.33;;
2035;SDS011;23642;42.658;23.350;2022-10-16T11:47:58;90.27;;;84.57;;
2035;SDS011;23642;42.658;23.350;2022-10-16T11:50:35;90.20;;;84.70;;
2035;SDS011;23642;42.658;23.350;2022-10-16T11:53:11;88.90;;;83.40;;
2035;SDS011;23642;42.658;23.350;2022-10-16T11:55:44;90.83;;;85.03;;
2035;SDS011;23642;42.658;23.350;2022-10-16T11:58:14;89.40;;;83.90;;
2035;SDS011;23642;42.658;23.350;2022-10-16T12:00:51;90.50;;;85.00;;
2035;SDS011;23642;42.658;23.350;2022-10-16T12:03:26;92.30;;;86.17;;
2035;SDS011;23642;42.658;23.350;2022-10-16T12:08:57;92.97;;;87.10;;
2035;SDS011;23642;42.658;23.350;2022-10-16T12:11:33;90.80;;;85.30;;
2035;SDS011;23642;42.658;23.350;2022-10-16T12:14:05;92.07;;;86.47;;
2035;SDS011;23642;42.658;23.350;2022-10-16T12:16:51;90.40;;;84.80;;
2035;SDS011;23642;42.658;23.350;2022-10-16T12:19:20;90.23;;;84.63;;
2035;SDS011;23642;42.658;23.350;2022-10-16T12:21:48;88.07;;;82.57;;
2035;SDS011;23642;42.658;23.350;2022-10-16T12:24:30;89.70;;;84.30;;
2035;SDS011;23642;42.658;23.350;2022-10-16T12:27:01;90.27;;;84.57;;
2035;SDS011;23642;42.658;23.350;2022-10-16T12:29:31;91.13;;;85.63;;
2035;SDS011;23642;42.658;23.350;2022-10-16T12:32:02;91.03;;;85.43;;
2035;SDS011;23642;42.658;23.350;2022-10-16T12:34:36;90.33;;;84.83;;
2035;SDS011;23642;42.658;23.350;2022-10-16T12:37:11;92.67;;;87.07;;
2035;SDS011;23642;42.658;23.350;2022-10-16T12:39:41;92.20;;;86.60;;
2035;SDS011;23642;42.658;23.350;2022-10-16T12:42:23;91.27;;;85.77;;
2035;SDS011;23642;42.658;23.350;2022-10-16T12:44:58;87.30;;;82.00;;
2035;SDS011;23642;42.658;23.350;2022-10-16T12:47:35;88.97;;;83.67;;
2035;SDS011;23642;42.658;23.350;2022-10-16T12:50:22;90.03;;;84.17;;
2035;SDS011;23642;42.658;23.350;2022-10-16T12:52:51;88.37;;;83.07;;
2035;SDS011;23642;42.658;23.350;2022-10-16T12:55:18;89.70;;;83.93;;
2035;SDS011;23642;42.658;23.350;2022-10-16T12:57:52;90.03;;;84.50;;
2035;SDS011;23642;42.658;23.350;2022-10-16T13:00:35;91.00;;;85.40;;
2035;SDS011;23642;42.658;23.350;2022-10-16T13:03:19;93.07;;;87.37;;
2035;SDS011;23642;42.658;23.350;2022-10-16T13:06:11;89.37;;;83.43;;
2035;SDS011;23642;42.658;23.350;2022-10-16T13:11:41;90.50;;;85.00;;
2035;SDS011;23642;42.658;23.350;2022-10-16T13:14:25;91.40;;;85.90;;
2035;SDS011;23642;42.658;23.350;2022-10-16T13:17:10;89.13;;;83.53;;
2035;SDS011;23642;42.658;23.350;2022-10-16T13:19:46;91.37;;;85.77;;
2035;SDS011;23642;42.658;23.350;2022-10-16T13:22:24;89.97;;;84.47;;
2035;SDS011;23642;42.658;23.350;2022-10-16T13:24:58;90.23;;;84.60;;
2035;SDS011;23642;42.658;23.350;2022-10-16T13:27:41;92.33;;;86.83;;
2035;SDS011;23642;42.658;23.350;2022-10-16T13:30:19;91.73;;;86.13;;
2035;SDS011;23642;42.658;23.350;2022-10-16T13:32:50;90.90;;;85.40;;
2035;SDS011;23642;42.658;23.350;2022-10-16T13:35:24;90.83;;;85.43;;
2035;SDS011;23642;42.658;23.350;2022-10-16T13:38:02;91.30;;;85.90;;
2035;SDS011;23642;42.658;23.350;2022-10-16T13:40:30;92.30;;;86.60;;
2035;SDS011;23642;42.658;23.350;2022-10-16T13:42:59;90.53;;;85.00;;
2035;SDS011;23642;42.658;23.350;2022-10-16T13:45:30;90.97;;;85.47;;
2035;SDS011;23642;42.658;23.350;2022-10-16T13:48:03;88.57;;;83.17;;
2035;SDS011;23642;42.658;23.350;2022-10-16T13:50:31;89.60;;;84.20;;
2035;SDS011;23642;42.658;23.350;2022-10-16T13:53:04;88.83;;;83.33;;
2035;SDS011;23642;42.658;23.350;2022-10-16T13:55:32;92.73;;;86.40;;
2035;SDS011;23642;42.658;23.350;2022-10-16T13:58:05;91.70;;;85.83;;
2035;SDS011;23642;42.658;23.350;2022-10-16T14:00:35;90.20;;;84.70;;
2035;SDS011;23642;42.658;23.350;2022-10-16T14:03:03;91.57;;;85.40;;
2035;SDS011;23642;42.658;23.350;2022-10-16T14:05:31;89.87;;;84.40;;
2035;SDS011;23642;42.658;23.350;2022-10-16T14:07:58;90.17;;;84.73;;
2035;SDS011;23642;42.658;23.350;2022-10-16T14:10:26;90.27;;;84.73;;
2035;SDS011;23642;42.658;23.350;2022-10-16T14:12:58;89.97;;;84.37;;
2035;SDS011;23642;42.658;23.350;2022-10-16T14:15:27;88.43;;;83.00;;
2035;SDS011;23642;42.658;23.350;2022-10-16T14:17:58;88.13;;;82.73;;
2035;SDS011;23642;42.658;23.350;2022-10-16T14:20:26;92.47;;;86.77;;
2035;SDS011;23642;42.658;23.350;2022-10-16T14:23:00;89.60;;;84.10;;
2035;SDS011;23642;42.658;23.350;2022-10-16T14:25:29;91.27;;;85.67;;
2035;SDS011;23642;42.658;23.350;2022-10-16T14:27:59;91.30;;;85.70;;
2035;SDS011;23642;42.658;23.350;2022-10-16T14:30:27;91.90;;;86.30;;
2035;SDS011;23642;42.658;23.350;2022-10-16T14:32:57;91.63;;;85.83;;
2035;SDS011;23642;42.658;23.350;2022-10-16T14:35:26;91.83;;;85.80;;
2035;SDS011;23642;42.658;23.350;2022-10-16T14:37:56;92.63;;;86.97;;
2035;SDS011;23642;42.658;23.350;2022-10-16T14:40:24;90.43;;;84.63;;
2035;SDS011;23642;42.658;23.350;2022-10-16T14:42:53;90.00;;;84.30;;
2035;SDS011;23642;42.658;23.350;2022-10-16T14:45:20;89.63;;;84.13;;